createdAt,value
2018-06-12T00:04:53.170Z,20.6
2018-06-12T00:14:52.750Z,20.5
2018-06-12T00:24:51.596Z,20.4
2018-06-12T00:34:50.872Z,20.4
2018-06-12T00:44:50.042Z,20.4
2018-06-12T00:54:50.165Z,20.2
2018-06-12T01:04:48.565Z,20.1
2018-06-12T01:14:48.080Z,20
2018-06-12T01:24:47.038Z,20.1
2018-06-12T01:34:45.916Z,20
2018-06-12T01:44:45.201Z,20
2018-06-12T01:54:44.703Z,20.1
2018-06-12T02:04:43.717Z,20.1
2018-06-12T02:14:43.188Z,20.2
2018-06-12T02:24:42.084Z,20.1
2018-06-12T02:34:41.656Z,19.9
2018-06-12T02:44:41.054Z,19.9
2018-06-12T02:54:40.410Z,19.9
2018-06-12T03:04:39.303Z,20
2018-06-12T03:14:38.580Z,20.1
2018-06-12T03:24:37.507Z,20.2
2018-06-12T03:34:37.424Z,20.4
2018-06-12T03:44:36.262Z,20.9
2018-06-12T03:54:35.171Z,21.3
2018-06-12T04:04:34.572Z,21.8
2018-06-12T04:14:33.967Z,22.2
2018-06-12T04:24:32.948Z,22.7
2018-06-12T04:34:32.508Z,23.3
2018-06-12T04:44:31.348Z,23.8
2018-06-12T04:54:30.672Z,24.3
2018-06-12T05:04:30.439Z,24.9
2018-06-12T05:14:29.668Z,25.4
2018-06-12T05:24:28.704Z,26
2018-06-12T05:34:28.137Z,26.6
2018-06-12T05:44:26.730Z,27.1
2018-06-12T05:54:26.548Z,27.7
2018-06-12T06:04:26.076Z,28.3
2018-06-12T06:14:24.469Z,28.7
2018-06-12T06:24:23.776Z,29.1
2018-06-12T06:34:22.900Z,29.7
2018-06-12T15:13:48.937Z,28.9
2018-06-12T15:23:47.895Z,28.8
2018-06-12T15:33:47.455Z,28.8
2018-06-12T15:43:46.688Z,28.7
2018-06-12T15:53:45.902Z,28.6
2018-06-12T16:03:44.833Z,28.5
2018-06-12T16:13:44.085Z,28.4
2018-06-12T16:23:43.679Z,28.4
2018-06-12T16:33:42.877Z,28.4
2018-06-12T16:43:42.063Z,28.2
2018-06-12T16:53:41.331Z,28.1
2018-06-12T17:03:40.331Z,27.9
2018-06-12T17:13:39.867Z,27.9
2018-06-12T17:23:38.733Z,27.8
2018-06-12T17:33:38.229Z,27.6
2018-06-12T17:43:37.369Z,27.4
2018-06-12T17:53:37.294Z,27.2
2018-06-12T18:03:36.046Z,26.9
2018-06-12T18:13:35.490Z,26.7
2018-06-12T18:23:34.684Z,26.4
2018-06-12T18:33:34.213Z,26.1
2018-06-12T18:43:33.644Z,25.9
2018-06-12T18:53:31.860Z,25.8
2018-06-12T19:03:31.228Z,25.6
2018-06-12T19:13:30.956Z,25.5
2018-06-12T19:23:30.279Z,25.3
2018-06-12T19:33:28.854Z,25.1
2018-06-12T19:43:28.414Z,24.9
2018-06-12T19:53:27.615Z,24.8
2018-06-12T20:03:26.512Z,24.6
2018-06-12T20:13:25.730Z,24.6
2018-06-12T20:23:24.999Z,24.4
2018-06-12T20:33:24.318Z,24.3
2018-06-12T20:43:23.470Z,24.2
2018-06-12T20:53:22.705Z,24.1
2018-06-12T21:03:22.231Z,23.9
2018-06-12T21:13:21.746Z,23.9
2018-06-12T21:23:20.701Z,23.8
2018-06-12T21:33:20.249Z,23.6
2018-06-12T21:43:18.889Z,23.5
2018-06-12T21:53:18.137Z,23.4
2018-06-12T22:03:17.443Z,23.4
2018-06-12T22:13:17.212Z,23.1
2018-06-12T22:23:15.912Z,23.1
2018-06-12T22:33:15.354Z,22.9
2018-06-12T22:43:14.599Z,22.8
2018-06-12T22:53:13.548Z,22.8
2018-06-12T23:03:13.346Z,22.6
2018-06-12T23:13:12.292Z,22.4
2018-06-12T23:23:11.542Z,22.3
2018-06-12T23:33:11.046Z,22.3
2018-06-12T23:43:09.821Z,22.2
2018-06-12T23:53:09.337Z,22.2
